createdAt,value
2019-05-22T04:24:20.614Z,16.53
2019-05-22T04:26:51.925Z,15.67
2019-05-22T04:29:21.323Z,15.70
2019-05-22T04:32:15.567Z,15.37
2019-05-22T04:34:45.848Z,15.37
2019-05-22T04:37:17.558Z,16.00
2019-05-22T04:39:48.736Z,16.30
2019-05-22T04:42:20.608Z,16.40
2019-05-22T04:45:15.028Z,16.47
2019-05-22T04:47:58.622Z,14.57
2019-05-22T04:50:29.980Z,19.57
2019-05-22T04:53:01.279Z,16.93
2019-05-22T04:55:33.243Z,16.37
2019-05-22T04:58:04.438Z,16.13
2019-05-22T05:00:35.758Z,16.40
2019-05-22T05:03:06.618Z,16.40
2019-05-22T05:05:41.435Z,15.80
2019-05-22T05:08:12.576Z,15.17
2019-05-22T05:10:46.433Z,16.77
2019-05-22T05:13:17.452Z,15.10
2019-05-22T05:15:47.140Z,15.40
2019-05-22T05:18:18.677Z,15.53
2019-05-22T05:20:50.276Z,16.33
2019-05-22T05:23:20.623Z,16.10
2019-05-22T05:25:50.409Z,16.37
2019-05-22T05:28:20.498Z,15.23
2019-05-22T05:30:50.051Z,16.30
2019-05-22T05:33:20.334Z,16.20
2019-05-22T05:35:50.861Z,17.47
2019-05-22T05:38:26.040Z,17.10
2019-05-22T05:40:55.613Z,17.80
2019-05-22T05:43:26.122Z,18.93
2019-05-22T05:45:56.111Z,18.43
2019-05-22T05:48:31.280Z,19.57
2019-05-22T05:51:43.183Z,20.23
2019-05-22T05:54:23.271Z,20.97
2019-05-22T05:56:53.347Z,22.27
2019-05-22T05:59:25.499Z,21.53
2019-05-22T06:01:59.291Z,21.90
2019-05-22T06:04:41.995Z,24.23
2019-05-22T06:07:25.179Z,23.67
2019-05-22T06:10:40.120Z,25.07
2019-05-22T06:13:12.236Z,25.40
2019-05-22T06:16:31.811Z,27.10
2019-05-22T06:19:04.279Z,28.77
2019-05-22T06:21:33.703Z,30.17
2019-05-22T06:24:25.243Z,29.47
2019-05-22T06:27:18.891Z,31.90
2019-05-22T06:29:59.267Z,33.00
2019-05-22T06:33:15.497Z,32.40
2019-05-22T06:35:47.391Z,34.77
2019-05-22T06:39:15.446Z,34.00
2019-05-22T06:41:46.114Z,34.17
2019-05-22T06:44:35.355Z,33.43
2019-05-22T06:47:06.891Z,35.03
2019-05-22T06:49:41.908Z,34.53
2019-05-22T06:52:12.155Z,34.70
2019-05-22T06:54:41.910Z,35.57
2019-05-22T06:57:18.426Z,35.47
2019-05-22T07:00:11.397Z,35.17
2019-05-22T07:02:25.967Z,34.37
2019-05-22T07:04:56.490Z,33.93
2019-05-22T07:07:27.655Z,34.07
2019-05-22T07:10:01.376Z,33.40
2019-05-22T07:12:32.048Z,32.63
2019-05-22T07:15:28.791Z,33.20
2019-05-22T07:17:58.788Z,32.13
2019-05-22T07:20:33.255Z,31.83
2019-05-22T07:23:06.187Z,31.10
2019-05-22T07:25:36.415Z,31.80
2019-05-22T07:28:08.180Z,30.50
2019-05-22T07:30:38.429Z,29.47
2019-05-22T07:33:08.120Z,29.27
2019-05-22T07:35:55.947Z,29.47
2019-05-22T07:38:09.622Z,30.40
2019-05-22T07:40:39.890Z,28.33
2019-05-22T07:43:09.763Z,28.57
2019-05-22T07:45:39.968Z,28.13
2019-05-22T07:48:11.261Z,28.20
2019-05-22T07:50:48.079Z,28.27
2019-05-22T07:53:17.494Z,27.77
2019-05-22T07:55:50.891Z,27.80
2019-05-22T07:58:21.203Z,27.47
2019-05-22T08:01:01.113Z,28.30
2019-05-22T08:03:31.797Z,29.13
2019-05-22T08:06:07.752Z,29.00
2019-05-22T08:08:37.829Z,28.60
2019-05-22T08:11:07.598Z,29.67
2019-05-22T08:13:37.915Z,28.43
2019-05-22T08:16:09.726Z,27.50
2019-05-22T08:18:40.582Z,28.27
2019-05-22T08:21:11.067Z,28.80
2019-05-22T08:23:40.862Z,27.40
2019-05-22T08:26:13.014Z,28.23
2019-05-22T08:28:42.396Z,28.53
2019-05-22T08:31:13.428Z,29.37
2019-05-22T08:33:43.085Z,29.40
2019-05-22T08:36:12.708Z,29.37
2019-05-22T08:38:44.839Z,28.30
2019-05-22T08:41:17.715Z,29.70
2019-05-22T08:44:13.974Z,29.23
2019-05-22T08:46:19.663Z,31.97
2019-05-22T08:48:49.990Z,28.83
2019-05-22T08:51:19.910Z,27.37
2019-05-22T08:53:49.902Z,25.37
2019-05-22T08:56:20.791Z,23.77
2019-05-22T08:58:51.432Z,24.63
2019-05-22T09:01:22.549Z,22.83
2019-05-22T09:03:52.802Z,22.30
2019-05-22T09:06:23.023Z,21.77
2019-05-22T09:08:52.294Z,21.20
2019-05-22T09:11:21.726Z,22.43
2019-05-22T09:13:51.036Z,21.63
2019-05-22T09:16:22.399Z,21.47
2019-05-22T09:18:53.814Z,19.97
2019-05-22T09:21:24.281Z,20.70
2019-05-22T09:23:54.880Z,20.33
2019-05-22T09:26:25.100Z,21.27
2019-05-22T09:28:54.943Z,20.33
2019-05-22T09:31:24.135Z,20.90
2019-05-22T09:33:53.453Z,21.90
2019-05-22T09:36:23.513Z,21.67
2019-05-22T09:39:03.901Z,22.33
2019-05-22T09:41:33.462Z,21.77
2019-05-22T09:44:03.120Z,23.30
2019-05-22T09:46:33.306Z,25.67
2019-05-22T09:49:02.623Z,25.80
2019-05-22T09:51:32.750Z,26.47
2019-05-22T09:54:03.650Z,27.90
2019-05-22T09:56:33.225Z,26.07
2019-05-22T09:59:03.195Z,26.43
2019-05-22T10:01:32.474Z,26.63
2019-05-22T10:04:02.408Z,26.97
2019-05-22T10:06:32.256Z,28.23
2019-05-22T10:09:01.827Z,27.57
2019-05-22T10:11:33.140Z,27.17
2019-05-22T10:14:04.820Z,27.83
2019-05-22T10:16:34.109Z,27.73
2019-05-22T10:19:10.177Z,28.10
2019-05-22T10:21:40.396Z,29.03
2019-05-22T10:24:09.920Z,30.17
2019-05-22T10:26:39.489Z,29.80
2019-05-22T10:29:09.426Z,28.60
2019-05-22T10:31:38.660Z,27.30
2019-05-22T10:34:09.244Z,28.37
2019-05-22T10:36:38.931Z,30.07
2019-05-22T10:39:08.657Z,28.93
2019-05-22T10:41:38.483Z,28.03
2019-05-22T10:44:08.113Z,25.60
2019-05-22T10:46:37.936Z,26.63
2019-05-22T10:49:07.153Z,25.53
2019-05-22T10:51:36.636Z,27.17
2019-05-22T10:54:07.062Z,26.13
2019-05-22T10:56:36.400Z,26.10
2019-05-22T10:59:06.880Z,27.33
2019-05-22T11:01:37.696Z,27.53
2019-05-22T11:04:08.138Z,28.23
2019-05-22T11:06:38.001Z,29.40
2019-05-22T11:09:09.796Z,28.40
2019-05-22T11:11:41.432Z,28.07
2019-05-22T11:14:11.822Z,26.10
2019-05-22T11:16:41.617Z,25.00
2019-05-22T11:19:13.407Z,25.33
2019-05-22T11:21:45.101Z,23.47
2019-05-22T11:24:15.102Z,23.80
2019-05-22T11:26:45.899Z,25.27
2019-05-22T11:29:15.591Z,25.97
2019-05-22T11:31:46.985Z,26.33
2019-05-22T11:34:16.048Z,26.30
2019-05-22T11:36:45.464Z,26.27
2019-05-22T11:39:16.852Z,26.23
2019-05-22T11:41:46.908Z,25.23
2019-05-22T11:44:16.480Z,25.03
2019-05-22T11:46:45.729Z,26.13
2019-05-22T11:49:17.143Z,26.20
2019-05-22T11:51:46.917Z,25.10
2019-05-22T11:54:16.952Z,26.87
2019-05-22T11:56:46.201Z,25.53
2019-05-22T11:59:16.418Z,25.07
2019-05-22T12:01:47.965Z,25.77
2019-05-22T12:04:17.243Z,26.80
2019-05-22T12:06:53.564Z,26.60
2019-05-22T12:09:22.411Z,26.37
2019-05-22T12:11:53.660Z,28.10
2019-05-22T12:14:23.528Z,26.43
2019-05-22T12:16:53.525Z,26.03
2019-05-22T12:19:24.055Z,25.73
2019-05-22T12:21:53.743Z,25.47
2019-05-22T12:24:36.450Z,24.93
2019-05-22T12:26:55.814Z,25.37
2019-05-22T12:29:26.104Z,24.47
2019-05-22T12:31:55.648Z,24.40
2019-05-22T12:34:25.552Z,24.83
2019-05-22T12:36:55.122Z,25.30
2019-05-22T12:39:25.911Z,25.30
2019-05-22T12:41:56.205Z,24.27
2019-05-22T12:44:26.480Z,22.00
2019-05-22T12:46:56.847Z,20.63
2019-05-22T12:49:28.125Z,23.70
2019-05-22T12:51:58.097Z,21.57
2019-05-22T12:54:45.300Z,23.47
2019-05-22T12:56:59.810Z,23.07
2019-05-22T12:59:33.003Z,21.53
2019-05-22T13:02:03.499Z,23.83
2019-05-22T13:04:33.098Z,24.33
2019-05-22T13:07:03.342Z,24.67
2019-05-22T13:09:32.848Z,23.83
2019-05-22T13:12:03.740Z,24.43
2019-05-22T13:14:34.012Z,25.10
2019-05-22T13:17:05.210Z,26.60
2019-05-22T13:19:36.215Z,25.57
2019-05-22T13:22:08.603Z,25.63
2019-05-22T13:24:39.178Z,25.03
2019-05-22T13:27:11.400Z,25.43
2019-05-22T13:29:42.336Z,25.77
2019-05-22T13:32:14.053Z,26.83
2019-05-22T13:34:43.950Z,25.83
2019-05-22T13:37:14.204Z,25.40
2019-05-22T13:39:43.579Z,25.00
2019-05-22T13:42:13.680Z,25.40
2019-05-22T13:44:45.261Z,24.77
2019-05-22T13:47:15.496Z,23.73
2019-05-22T13:49:45.895Z,25.23
2019-05-22T13:52:16.632Z,24.60
2019-05-22T13:54:45.910Z,24.23
2019-05-22T13:57:16.050Z,24.57
2019-05-22T13:59:45.640Z,22.73
2019-05-22T14:02:15.578Z,22.23
2019-05-22T14:04:45.576Z,24.93
2019-05-22T14:07:22.556Z,25.37
2019-05-22T14:09:52.371Z,24.47
2019-05-22T14:12:22.604Z,24.87
2019-05-22T14:14:52.391Z,25.30
2019-05-22T14:17:21.659Z,25.80
2019-05-22T14:19:51.701Z,24.97
2019-05-22T14:22:21.035Z,24.90
2019-05-22T14:24:50.664Z,23.47
2019-05-22T14:27:20.114Z,22.73
2019-05-22T14:29:50.294Z,23.37
2019-05-22T14:32:20.771Z,23.37
2019-05-22T14:34:50.888Z,24.00
2019-05-22T14:37:21.191Z,22.60
2019-05-22T14:39:51.044Z,22.67
2019-05-22T14:42:21.297Z,23.40
2019-05-22T14:44:53.948Z,24.23
2019-05-22T14:47:23.879Z,22.23
2019-05-22T14:49:53.218Z,21.23
2019-05-22T14:52:23.311Z,21.50
2019-05-22T14:54:52.572Z,22.60
2019-05-22T14:57:23.006Z,22.13
2019-05-22T14:59:52.396Z,21.80
2019-05-22T15:02:22.265Z,22.67
2019-05-22T15:04:51.504Z,20.37
2019-05-22T15:07:21.324Z,20.90
2019-05-22T15:09:51.013Z,19.83
2019-05-22T15:12:21.224Z,19.83
2019-05-22T15:14:52.394Z,20.43
2019-05-22T15:17:32.505Z,20.67
2019-05-22T15:19:55.601Z,19.93
2019-05-22T15:22:25.122Z,20.27
2019-05-22T15:24:55.020Z,21.57
2019-05-22T15:27:24.965Z,20.70
2019-05-22T15:30:04.826Z,21.87
2019-05-22T15:32:35.284Z,20.53
2019-05-22T15:35:05.849Z,18.63
2019-05-22T15:37:36.348Z,17.20
2019-05-22T15:40:08.026Z,23.80
2019-05-22T15:42:42.751Z,16.87
2019-05-22T15:45:16.192Z,15.80
2019-05-22T15:47:55.497Z,13.93
2019-05-22T15:50:26.603Z,14.37
2019-05-22T15:53:02.417Z,13.57
2019-05-22T15:55:34.254Z,13.10
2019-05-22T15:58:05.452Z,12.33
2019-05-22T16:00:38.868Z,13.63
2019-05-22T16:03:15.454Z,13.50
2019-05-22T16:05:46.640Z,13.03
2019-05-22T16:08:17.312Z,13.93
2019-05-22T16:10:50.008Z,14.10
2019-05-22T16:13:24.462Z,13.00
2019-05-22T16:15:57.040Z,12.23
2019-05-22T16:18:32.848Z,11.17
2019-05-22T16:21:10.282Z,11.17
2019-05-22T16:23:41.846Z,11.70
2019-05-22T16:26:14.208Z,11.87
2019-05-22T16:28:45.859Z,10.93
2019-05-22T16:31:22.814Z,10.43
2019-05-22T16:33:54.584Z,10.90
2019-05-22T16:36:27.939Z,9.43
2019-05-22T16:39:04.325Z,9.17
2019-05-22T16:41:34.553Z,10.03
2019-05-22T16:44:04.383Z,9.03
2019-05-22T16:46:35.216Z,9.83
2019-05-22T16:49:06.938Z,8.70
2019-05-22T16:51:38.480Z,9.30
2019-05-22T16:54:12.377Z,9.30
2019-05-22T16:56:43.222Z,9.60
2019-05-22T16:59:21.904Z,9.40
2019-05-22T17:01:59.430Z,9.20
2019-05-22T17:04:23.760Z,8.73
2019-05-22T17:06:53.570Z,9.40
2019-05-22T17:09:23.383Z,9.00
2019-05-22T17:12:07.791Z,8.37
2019-05-22T17:14:37.707Z,8.93
2019-05-22T17:17:07.434Z,8.43
2019-05-22T17:19:37.436Z,8.10
2019-05-22T17:22:08.602Z,8.67
2019-05-22T17:24:39.551Z,8.60
2019-05-22T17:27:11.896Z,9.20
2019-05-22T17:29:51.102Z,9.10
2019-05-22T17:32:25.614Z,9.10
2019-05-22T17:34:54.880Z,8.37
2019-05-22T17:37:26.680Z,9.20
2019-05-22T17:40:01.620Z,9.73
2019-05-22T17:42:32.292Z,9.13
2019-05-22T17:45:04.360Z,9.50
2019-05-22T17:47:34.495Z,8.40
2019-05-22T17:50:06.019Z,8.63
2019-05-22T17:52:36.307Z,8.23
2019-05-22T17:55:06.916Z,10.50
2019-05-22T17:57:38.107Z,10.00
2019-05-22T18:00:17.408Z,9.00
2019-05-22T18:02:48.573Z,8.40
2019-05-22T18:05:19.095Z,8.63
2019-05-22T18:07:48.786Z,8.83
2019-05-22T18:10:21.984Z,8.57
2019-05-22T18:12:51.743Z,10.33
2019-05-22T18:15:21.297Z,10.70
2019-05-22T18:17:50.883Z,10.60
2019-05-22T18:20:22.406Z,10.33
2019-05-22T18:22:51.957Z,10.70
2019-05-22T18:25:21.892Z,11.60
2019-05-22T18:27:52.434Z,11.70
2019-05-22T18:30:26.177Z,11.40
2019-05-22T18:32:56.716Z,11.60
2019-05-22T18:35:26.584Z,13.07
2019-05-22T18:37:55.867Z,15.13
2019-05-22T18:40:25.551Z,14.60
2019-05-22T18:42:54.762Z,15.77
2019-05-22T18:45:25.353Z,12.67
2019-05-22T18:47:55.733Z,11.27
2019-05-22T18:50:26.508Z,12.20
2019-05-22T18:52:56.682Z,11.20
2019-05-22T18:55:26.511Z,11.43
2019-05-22T18:57:56.250Z,10.50
2019-05-22T19:00:27.324Z,11.07
2019-05-22T19:02:57.850Z,11.73
2019-05-22T19:05:30.923Z,12.03
2019-05-22T19:08:00.662Z,11.87
2019-05-22T19:10:30.375Z,10.83
2019-05-22T19:13:00.422Z,12.03
2019-05-22T19:15:30.446Z,11.53
2019-05-22T19:18:00.062Z,11.70
2019-05-22T19:20:29.667Z,11.33
2019-05-22T19:23:01.558Z,10.93
2019-05-22T19:25:30.867Z,11.17
2019-05-22T19:28:00.647Z,11.67
2019-05-22T19:30:30.926Z,11.40
2019-05-22T19:33:01.155Z,11.63
2019-05-22T19:35:30.489Z,11.30
2019-05-22T19:38:01.006Z,11.63
2019-05-22T19:40:31.183Z,11.47
2019-05-22T19:43:01.063Z,11.80
2019-05-22T19:45:31.223Z,11.67
2019-05-22T19:48:01.136Z,12.43
2019-05-22T19:50:31.414Z,12.87
2019-05-22T19:53:17.639Z,13.03
2019-05-22T19:55:35.881Z,13.30
2019-05-22T19:58:07.360Z,13.60
2019-05-22T20:00:37.564Z,13.83
2019-05-22T20:03:07.240Z,13.70
2019-05-22T20:05:38.595Z,14.13
2019-05-22T20:08:09.109Z,14.60
2019-05-22T20:10:39.639Z,14.63
2019-05-22T20:13:12.695Z,14.73
2019-05-22T20:15:42.809Z,14.40
2019-05-22T20:18:13.755Z,14.90
2019-05-22T20:20:43.256Z,14.77
2019-05-22T20:23:13.214Z,13.90
2019-05-22T20:25:42.984Z,14.97
2019-05-22T20:28:14.861Z,14.80
2019-05-22T20:30:44.164Z,15.63
2019-05-22T20:33:14.118Z,16.13
2019-05-22T20:35:43.643Z,16.13
2019-05-22T20:38:13.389Z,15.90
2019-05-22T20:40:43.405Z,15.30
2019-05-22T20:43:14.120Z,15.03
2019-05-22T20:45:45.481Z,15.83
2019-05-22T20:48:22.241Z,15.53
2019-05-22T20:50:52.096Z,15.60
2019-05-22T20:53:22.016Z,17.07
2019-05-22T20:55:53.135Z,15.67
2019-05-22T20:58:23.118Z,16.77
2019-05-22T21:00:53.379Z,16.30
2019-05-22T21:03:25.871Z,16.33
2019-05-22T21:05:58.654Z,16.53
2019-05-22T21:08:31.042Z,16.20
2019-05-22T21:11:03.121Z,15.70
2019-05-22T21:13:34.158Z,15.83
2019-05-22T21:16:05.299Z,17.03
2019-05-22T21:18:49.227Z,16.93
2019-05-22T21:21:20.139Z,16.53
2019-05-22T21:24:07.692Z,16.20
2019-05-22T21:26:26.103Z,15.27
2019-05-22T21:28:56.011Z,15.97
2019-05-22T21:31:25.530Z,15.70
2019-05-22T21:33:55.939Z,15.90
2019-05-22T21:36:27.384Z,16.13
2019-05-22T21:38:57.320Z,16.70
2019-05-22T21:41:27.036Z,16.10
2019-05-22T21:43:57.923Z,16.67
2019-05-22T21:46:27.688Z,16.37
2019-05-22T21:48:58.626Z,16.67
2019-05-22T21:51:31.810Z,16.60
2019-05-22T21:54:02.103Z,17.27
2019-05-22T21:56:31.551Z,17.20
2019-05-22T21:59:02.995Z,17.70
